sensor_id;sensor_type;location;lat;lon;timestamp;pressure;altitude;pressure_sealevel;temperature;humidity
72560;BME280;62987;52.382;9.752;2023-07-22T00:01:35;100568.56;;;13.83;100.00
72560;BME280;62987;52.382;9.752;2023-07-22T00:04:11;100556.34;;;13.79;100.00
72560;BME280;62987;52.382;9.752;2023-07-22T00:06:42;100474.69;;;13.28;100.00
72560;BME280;62987;52.382;9.752;2023-07-22T00:09:11;100555.13;;;13.84;100.00
72560;BME280;62987;52.382;9.752;2023-07-22T00:11:39;100567.53;;;13.85;100.00
72560;BME280;62987;52.382;9.752;2023-07-22T00:14:10;100526.53;;;13.55;100.00
72560;BME280;62987;52.382;9.752;2023-07-22T00:16:39;100546.09;;;13.71;100.00
72560;BME280;62987;52.382;9.752;2023-07-22T00:19:07;100553.31;;;13.69;100.00
72560;BME280;62987;52.382;9.752;2023-07-22T00:21:35;100559.97;;;13.62;100.00
72560;BME280;62987;52.382;9.752;2023-07-22T00:24:04;100574.97;;;13.65;100.00
72560;BME280;62987;52.382;9.752;2023-07-22T00:26:32;100572.56;;;13.60;100.00
72560;BME280;62987;52.382;9.752;2023-07-22T00:29:00;100564.03;;;13.53;100.00
72560;BME280;62987;52.382;9.752;2023-07-22T00:31:29;100574.47;;;13.58;100.00
72560;BME280;62987;52.382;9.752;2023-07-22T00:33:58;100565.84;;;13.53;100.00
72560;BME280;62987;52.382;9.752;2023-07-22T00:36:26;100577.13;;;13.58;100.00
72560;BME280;62987;52.382;9.752;2023-07-22T00:38:56;100581.47;;;13.60;100.00
72560;BME280;62987;52.382;9.752;2023-07-22T00:41:24;100562.38;;;13.51;100.00
72560;BME280;62987;52.382;9.752;2023-07-22T00:43:52;100562.59;;;13.48;100.00
72560;BME280;62987;52.382;9.752;2023-07-22T00:46:20;100575.69;;;13.52;100.00
72560;BME280;62987;52.382;9.752;2023-07-22T00:48:49;100574.03;;;13.50;100.00
72560;BME280;62987;52.382;9.752;2023-07-22T00:51:19;100569.63;;;13.49;100.00
72560;BME280;62987;52.382;9.752;2023-07-22T00:53:49;100564.47;;;13.46;100.00
72560;BME280;62987;52.382;9.752;2023-07-22T00:56:17;100567.41;;;13.41;100.00
72560;BME280;62987;52.382;9.752;2023-07-22T00:58:45;100579.38;;;13.50;100.00
72560;BME280;62987;52.382;9.752;2023-07-22T01:01:13;100557.91;;;13.36;100.00
72560;BME280;62987;52.382;9.752;2023-07-22T01:03:41;100572.56;;;13.44;100.00
72560;BME280;62987;52.382;9.752;2023-07-22T01:06:09;100557.56;;;13.42;100.00
72560;BME280;62987;52.382;9.752;2023-07-22T01:08:40;100559.28;;;13.43;100.00
72560;BME280;62987;52.382;9.752;2023-07-22T01:11:08;100537.06;;;13.27;100.00
72560;BME280;62987;52.382;9.752;2023-07-22T01:13:36;100553.59;;;13.33;100.00
72560;BME280;62987;52.382;9.752;2023-07-22T01:16:05;100527.53;;;13.05;100.00
72560;BME280;62987;52.382;9.752;2023-07-22T01:18:33;100569.13;;;13.27;100.00
72560;BME280;62987;52.382;9.752;2023-07-22T01:21:05;100571.72;;;13.28;100.00
72560;BME280;62987;52.382;9.752;2023-07-22T01:23:35;100572.66;;;13.27;100.00
72560;BME280;62987;52.382;9.752;2023-07-22T01:26:04;100576.53;;;13.22;100.00
72560;BME280;62987;52.382;9.752;2023-07-22T01:28:34;100530.72;;;12.96;100.00
72560;BME280;62987;52.382;9.752;2023-07-22T01:31:02;100565.66;;;13.25;100.00
72560;BME280;62987;52.382;9.752;2023-07-22T01:33:32;100570.41;;;13.19;100.00
72560;BME280;62987;52.382;9.752;2023-07-22T01:36:00;100567.66;;;13.21;100.00
72560;BME280;62987;52.382;9.752;2023-07-22T01:38:28;100569.97;;;13.27;100.00
72560;BME280;62987;52.382;9.752;2023-07-22T01:40:59;100557.19;;;13.16;100.00
72560;BME280;62987;52.382;9.752;2023-07-22T01:43:27;100541.81;;;13.04;100.00
72560;BME280;62987;52.382;9.752;2023-07-22T01:45:55;100565.50;;;13.10;100.00
72560;BME280;62987;52.382;9.752;2023-07-22T01:48:23;100564.91;;;13.05;100.00
72560;BME280;62987;52.382;9.752;2023-07-22T01:50:51;100567.13;;;12.97;100.00
72560;BME280;62987;52.382;9.752;2023-07-22T01:53:20;100551.78;;;12.85;100.00
72560;BME280;62987;52.382;9.752;2023-07-22T01:55:47;100572.47;;;12.97;100.00
72560;BME280;62987;52.382;9.752;2023-07-22T01:58:17;100563.84;;;12.92;100.00
72560;BME280;62987;52.382;9.752;2023-07-22T02:00:49;100563.16;;;12.89;100.00
72560;BME280;62987;52.382;9.752;2023-07-22T02:03:17;100560.09;;;12.96;100.00
72560;BME280;62987;52.382;9.752;2023-07-22T02:05:45;100532.34;;;12.83;100.00
72560;BME280;62987;52.382;9.752;2023-07-22T02:08:13;100547.03;;;12.90;100.00
72560;BME280;62987;52.382;9.752;2023-07-22T02:10:41;100563.91;;;12.91;100.00
72560;BME280;62987;52.382;9.752;2023-07-22T02:13:10;100565.72;;;12.90;100.00
72560;BME280;62987;52.382;9.752;2023-07-22T02:15:41;100553.03;;;12.78;100.00
72560;BME280;62987;52.382;9.752;2023-07-22T02:18:09;100548.81;;;12.74;100.00
72560;BME280;62987;52.382;9.752;2023-07-22T02:20:37;100571.56;;;12.81;100.00
72560;BME280;62987;52.382;9.752;2023-07-22T02:23:06;100572.25;;;12.85;100.00
72560;BME280;62987;52.382;9.752;2023-07-22T02:25:36;100561.69;;;12.83;100.00
72560;BME280;62987;52.382;9.752;2023-07-22T02:28:04;100577.84;;;12.80;100.00
72560;BME280;62987;52.382;9.752;2023-07-22T02:30:33;100573.31;;;12.82;100.00
72560;BME280;62987;52.382;9.752;2023-07-22T02:33:05;100581.06;;;12.87;100.00
72560;BME280;62987;52.382;9.752;2023-07-22T02:35:34;100577.53;;;12.86;100.00
72560;BME280;62987;52.382;9.752;2023-07-22T02:38:02;100569.25;;;12.75;100.00
72560;BME280;62987;52.382;9.752;2023-07-22T02:40:34;100558.78;;;12.70;100.00
72560;BME280;62987;52.382;9.752;2023-07-22T02:43:02;100576.06;;;12.80;100.00
72560;BME280;62987;52.382;9.752;2023-07-22T02:45:30;100563.28;;;12.70;100.00
72560;BME280;62987;52.382;9.752;2023-07-22T02:47:58;100586.00;;;12.77;100.00
72560;BME280;62987;52.382;9.752;2023-07-22T02:50:27;100588.28;;;12.85;100.00
72560;BME280;62987;52.382;9.752;2023-07-22T02:52:55;100582.53;;;12.92;100.00
72560;BME280;62987;52.382;9.752;2023-07-22T02:55:24;100590.88;;;12.86;100.00
72560;BME280;62987;52.382;9.752;2023-07-22T02:57:52;100592.06;;;12.80;100.00
72560;BME280;62987;52.382;9.752;2023-07-22T03:00:20;100561.16;;;12.59;100.00
72560;BME280;62987;52.382;9.752;2023-07-22T03:02:52;100587.44;;;12.67;100.00
72560;BME280;62987;52.382;9.752;2023-07-22T03:05:21;100574.28;;;12.64;100.00
72560;BME280;62987;52.382;9.752;2023-07-22T03:07:50;100597.66;;;12.76;100.00
72560;BME280;62987;52.382;9.752;2023-07-22T03:10:20;100578.03;;;12.60;100.00
72560;BME280;62987;52.382;9.752;2023-07-22T03:12:48;100591.34;;;12.77;100.00
72560;BME280;62987;52.382;9.752;2023-07-22T03:15:16;100597.41;;;12.80;100.00
72560;BME280;62987;52.382;9.752;2023-07-22T03:17:45;100594.00;;;12.77;100.00
72560;BME280;62987;52.382;9.752;2023-07-22T03:20:14;100593.59;;;12.69;100.00
72560;BME280;62987;52.382;9.752;2023-07-22T03:22:43;100601.34;;;12.73;100.00
72560;BME280;62987;52.382;9.752;2023-07-22T03:25:14;100603.94;;;12.75;100.00
72560;BME280;62987;52.382;9.752;2023-07-22T03:27:44;100602.75;;;12.80;100.00
72560;BME280;62987;52.382;9.752;2023-07-22T03:30:14;100615.63;;;12.72;100.00
72560;BME280;62987;52.382;9.752;2023-07-22T03:32:43;100613.56;;;12.77;100.00
72560;BME280;62987;52.382;9.752;2023-07-22T03:35:11;100614.00;;;12.70;100.00
72560;BME280;62987;52.382;9.752;2023-07-22T03:37:40;100594.06;;;12.60;100.00
72560;BME280;62987;52.382;9.752;2023-07-22T03:40:09;100621.69;;;12.76;100.00
72560;BME280;62987;52.382;9.752;2023-07-22T03:42:45;100622.00;;;12.70;100.00
72560;BME280;62987;52.382;9.752;2023-07-22T03:45:13;100591.41;;;12.43;100.00
72560;BME280;62987;52.382;9.752;2023-07-22T03:47:44;100628.34;;;12.67;100.00
72560;BME280;62987;52.382;9.752;2023-07-22T03:50:12;100626.28;;;12.72;100.00
72560;BME280;62987;52.382;9.752;2023-07-22T03:52:40;100623.00;;;12.67;100.00
72560;BME280;62987;52.382;9.752;2023-07-22T03:55:09;100631.00;;;12.67;100.00
72560;BME280;62987;52.382;9.752;2023-07-22T03:57:37;100629.22;;;12.68;100.00
72560;BME280;62987;52.382;9.752;2023-07-22T04:00:08;100592.81;;;12.50;100.00
72560;BME280;62987;52.382;9.752;2023-07-22T04:02:40;100619.31;;;12.70;100.00
72560;BME280;62987;52.382;9.752;2023-07-22T04:05:09;100620.63;;;12.78;100.00
72560;BME280;62987;52.382;9.752;2023-07-22T04:07:37;100619.78;;;12.78;100.00
72560;BME280;62987;52.382;9.752;2023-07-22T04:10:07;100628.25;;;12.86;100.00
72560;BME280;62987;52.382;9.752;2023-07-22T04:12:35;100610.50;;;12.85;100.00
72560;BME280;62987;52.382;9.752;2023-07-22T04:15:07;100614.03;;;12.86;100.00
72560;BME280;62987;52.382;9.752;2023-07-22T04:17:35;100601.88;;;12.80;100.00
72560;BME280;62987;52.382;9.752;2023-07-22T04:20:04;100617.41;;;12.89;100.00
72560;BME280;62987;52.382;9.752;2023-07-22T04:22:35;100622.66;;;12.91;100.00
72560;BME280;62987;52.382;9.752;2023-07-22T04:25:03;100592.84;;;12.82;100.00
72560;BME280;62987;52.382;9.752;2023-07-22T04:27:32;100626.19;;;13.08;100.00
72560;BME280;62987;52.382;9.752;2023-07-22T04:30:00;100631.22;;;13.14;100.00
72560;BME280;62987;52.382;9.752;2023-07-22T04:32:31;100626.31;;;13.23;100.00
72560;BME280;62987;52.382;9.752;2023-07-22T04:35:00;100632.69;;;13.36;100.00
72560;BME280;62987;52.382;9.752;2023-07-22T04:37:29;100601.50;;;13.20;100.00
72560;BME280;62987;52.382;9.752;2023-07-22T04:39:57;100635.75;;;13.45;100.00
72560;BME280;62987;52.382;9.752;2023-07-22T04:42:25;100639.03;;;13.50;100.00
72560;BME280;62987;52.382;9.752;2023-07-22T04:44:54;100631.88;;;13.51;100.00
72560;BME280;62987;52.382;9.752;2023-07-22T04:47:22;100642.75;;;13.64;100.00
72560;BME280;62987;52.382;9.752;2023-07-22T04:49:51;100643.59;;;13.64;100.00
72560;BME280;62987;52.382;9.752;2023-07-22T04:52:20;100643.94;;;13.58;100.00
72560;BME280;62987;52.382;9.752;2023-07-22T04:54:48;100639.28;;;13.61;100.00
72560;BME280;62987;52.382;9.752;2023-07-22T04:57:16;100643.44;;;13.67;100.00
72560;BME280;62987;52.382;9.752;2023-07-22T04:59:45;100641.19;;;13.75;100.00
72560;BME280;62987;52.382;9.752;2023-07-22T05:02:13;100644.66;;;13.77;100.00
72560;BME280;62987;52.382;9.752;2023-07-22T05:04:41;100642.66;;;13.81;100.00
72560;BME280;62987;52.382;9.752;2023-07-22T05:07:10;100643.09;;;13.89;100.00
72560;BME280;62987;52.382;9.752;2023-07-22T05:09:38;100645.53;;;13.93;100.00
72560;BME280;62987;52.382;9.752;2023-07-22T05:12:06;100647.13;;;13.96;100.00
72560;BME280;62987;52.382;9.752;2023-07-22T05:14:35;100632.91;;;13.95;100.00
72560;BME280;62987;52.382;9.752;2023-07-22T05:17:03;100651.19;;;14.19;100.00
72560;BME280;62987;52.382;9.752;2023-07-22T05:19:31;100642.09;;;14.21;100.00
72560;BME280;62987;52.382;9.752;2023-07-22T05:21:59;100651.13;;;14.34;100.00
72560;BME280;62987;52.382;9.752;2023-07-22T05:24:29;100632.84;;;14.27;100.00
72560;BME280;62987;52.382;9.752;2023-07-22T05:26:57;100650.81;;;14.25;100.00
72560;BME280;62987;52.382;9.752;2023-07-22T05:29:35;100661.44;;;14.42;100.00
72560;BME280;62987;52.382;9.752;2023-07-22T05:32:04;100655.91;;;14.45;100.00
72560;BME280;62987;52.382;9.752;2023-07-22T05:34:42;100666.16;;;14.37;100.00
72560;BME280;62987;52.382;9.752;2023-07-22T05:37:10;100660.56;;;14.42;100.00
72560;BME280;62987;52.382;9.752;2023-07-22T05:39:39;100658.28;;;14.34;100.00
72560;BME280;62987;52.382;9.752;2023-07-22T05:42:07;100648.16;;;14.25;100.00
72560;BME280;62987;52.382;9.752;2023-07-22T05:44:35;100666.94;;;14.39;100.00
72560;BME280;62987;52.382;9.752;2023-07-22T05:47:04;100650.47;;;14.31;100.00
72560;BME280;62987;52.382;9.752;2023-07-22T05:49:32;100667.28;;;14.49;100.00
72560;BME280;62987;52.382;9.752;2023-07-22T05:52:03;100675.16;;;14.52;100.00
72560;BME280;62987;52.382;9.752;2023-07-22T05:54:31;100665.28;;;14.52;100.00
72560;BME280;62987;52.382;9.752;2023-07-22T05:57:00;100664.16;;;14.56;100.00
72560;BME280;62987;52.382;9.752;2023-07-22T05:59:30;100653.75;;;14.52;100.00
72560;BME280;62987;52.382;9.752;2023-07-22T06:01:58;100659.66;;;14.57;100.00
72560;BME280;62987;52.382;9.752;2023-07-22T06:04:26;100648.75;;;14.60;100.00
72560;BME280;62987;52.382;9.752;2023-07-22T06:06:54;100669.94;;;14.78;100.00
72560;BME280;62987;52.382;9.752;2023-07-22T06:09:23;100634.38;;;14.76;100.00
72560;BME280;62987;52.382;9.752;2023-07-22T06:11:51;100672.41;;;15.11;100.00
72560;BME280;62987;52.382;9.752;2023-07-22T06:14:20;100679.41;;;15.14;100.00
72560;BME280;62987;52.382;9.752;2023-07-22T06:16:48;100648.75;;;15.18;100.00
72560;BME280;62987;52.382;9.752;2023-07-22T06:19:16;100674.31;;;15.24;100.00
72560;BME280;62987;52.382;9.752;2023-07-22T06:21:45;100671.84;;;15.20;100.00
72560;BME280;62987;52.382;9.752;2023-07-22T06:24:13;100674.81;;;15.30;100.00
72560;BME280;62987;52.382;9.752;2023-07-22T06:26:41;100669.19;;;15.35;100.00
72560;BME280;62987;52.382;9.752;2023-07-22T06:29:09;100678.09;;;15.35;100.00
72560;BME280;62987;52.382;9.752;2023-07-22T06:31:38;100662.38;;;15.29;100.00
72560;BME280;62987;52.382;9.752;2023-07-22T06:34:06;100663.13;;;15.45;100.00
72560;BME280;62987;52.382;9.752;2023-07-22T06:36:34;100674.53;;;15.49;100.00
72560;BME280;62987;52.382;9.752;2023-07-22T06:39:02;100653.44;;;15.43;100.00
72560;BME280;62987;52.382;9.752;2023-07-22T06:41:30;100652.34;;;15.61;100.00
72560;BME280;62987;52.382;9.752;2023-07-22T06:43:58;100676.31;;;15.91;100.00
72560;BME280;62987;52.382;9.752;2023-07-22T06:46:27;100665.34;;;15.67;100.00
72560;BME280;62987;52.382;9.752;2023-07-22T06:48:57;100680.28;;;15.85;100.00
72560;BME280;62987;52.382;9.752;2023-07-22T06:51:25;100668.28;;;15.91;100.00
72560;BME280;62987;52.382;9.752;2023-07-22T06:53:53;100662.66;;;15.81;100.00
72560;BME280;62987;52.382;9.752;2023-07-22T06:56:21;100679.22;;;16.15;100.00
72560;BME280;62987;52.382;9.752;2023-07-22T06:58:50;100663.59;;;16.21;100.00
72560;BME280;62987;52.382;9.752;2023-07-22T07:01:18;100660.25;;;16.45;100.00
72560;BME280;62987;52.382;9.752;2023-07-22T07:03:46;100673.22;;;16.65;100.00
72560;BME280;62987;52.382;9.752;2023-07-22T07:06:15;100676.03;;;16.49;100.00
72560;BME280;62987;52.382;9.752;2023-07-22T07:08:43;100681.00;;;16.55;100.00
72560;BME280;62987;52.382;9.752;2023-07-22T07:11:11;100676.72;;;16.53;100.00
72560;BME280;62987;52.382;9.752;2023-07-22T07:13:39;100680.09;;;16.69;100.00
72560;BME280;62987;52.382;9.752;2023-07-22T07:16:20;100677.97;;;16.74;100.00
72560;BME280;62987;52.382;9.752;2023-07-22T07:18:49;100677.34;;;16.83;100.00
72560;BME280;62987;52.382;9.752;2023-07-22T07:21:19;100649.59;;;16.70;100.00
72560;BME280;62987;52.382;9.752;2023-07-22T07:23:48;100655.50;;;16.75;100.00
72560;BME280;62987;52.382;9.752;2023-07-22T07:26:16;100687.44;;;16.92;100.00
72560;BME280;62987;52.382;9.752;2023-07-22T07:28:44;100678.75;;;17.01;100.00
72560;BME280;62987;52.382;9.752;2023-07-22T07:31:13;100666.94;;;16.78;100.00
72560;BME280;62987;52.382;9.752;2023-07-22T07:33:41;100670.41;;;16.66;100.00
72560;BME280;62987;52.382;9.752;2023-07-22T07:36:09;100679.91;;;16.72;100.00
72560;BME280;62987;52.382;9.752;2023-07-22T07:38:38;100685.16;;;16.73;100.00
72560;BME280;62987;52.382;9.752;2023-07-22T07:41:06;100677.88;;;16.88;100.00
72560;BME280;62987;52.382;9.752;2023-07-22T07:43:38;100691.44;;;17.25;100.00
72560;BME280;62987;52.382;9.752;2023-07-22T07:46:13;100685.53;;;17.32;100.00
72560;BME280;62987;52.382;9.752;2023-07-22T07:48:44;100686.38;;;17.58;100.00
72560;BME280;62987;52.382;9.752;2023-07-22T07:51:13;100684.81;;;17.43;100.00
72560;BME280;62987;52.382;9.752;2023-07-22T07:53:43;100686.63;;;17.68;100.00
72560;BME280;62987;52.382;9.752;2023-07-22T07:56:11;100672.66;;;17.50;100.00
72560;BME280;62987;52.382;9.752;2023-07-22T07:58:40;100655.44;;;17.40;100.00
72560;BME280;62987;52.382;9.752;2023-07-22T08:01:08;100677.34;;;17.72;100.00
72560;BME280;62987;52.382;9.752;2023-07-22T08:03:38;100684.44;;;17.85;100.00
72560;BME280;62987;52.382;9.752;2023-07-22T08:06:06;100676.03;;;17.90;100.00
72560;BME280;62987;52.382;9.752;2023-07-22T08:08:34;100694.16;;;18.35;100.00
72560;BME280;62987;52.382;9.752;2023-07-22T08:11:10;100687.09;;;18.22;100.00
72560;BME280;62987;52.382;9.752;2023-07-22T08:13:41;100680.63;;;18.48;100.00
72560;BME280;62987;52.382;9.752;2023-07-22T08:16:11;100694.47;;;18.20;100.00
72560;BME280;62987;52.382;9.752;2023-07-22T08:18:40;100661.19;;;17.84;100.00
72560;BME280;62987;52.382;9.752;2023-07-22T08:21:08;100696.66;;;18.02;100.00
72560;BME280;62987;52.382;9.752;2023-07-22T08:23:37;100656.66;;;17.85;100.00
72560;BME280;62987;52.382;9.752;2023-07-22T08:26:06;100691.81;;;18.55;100.00
72560;BME280;62987;52.382;9.752;2023-07-22T08:28:34;100684.75;;;18.41;100.00
72560;BME280;62987;52.382;9.752;2023-07-22T08:31:02;100670.88;;;18.47;100.00
72560;BME280;62987;52.382;9.752;2023-07-22T08:33:30;100690.59;;;18.71;100.00
72560;BME280;62987;52.382;9.752;2023-07-22T08:36:01;100689.47;;;19.20;100.00
72560;BME280;62987;52.382;9.752;2023-07-22T08:38:30;100591.84;;;18.12;100.00
72560;BME280;62987;52.382;9.752;2023-07-22T08:40:58;100698.84;;;18.57;100.00
72560;BME280;62987;52.382;9.752;2023-07-22T08:43:28;100699.78;;;18.80;100.00
72560;BME280;62987;52.382;9.752;2023-07-22T08:46:00;100697.00;;;18.93;100.00
72560;BME280;62987;52.382;9.752;2023-07-22T08:48:31;100704.00;;;18.95;100.00
72560;BME280;62987;52.382;9.752;2023-07-22T08:51:04;100696.72;;;19.20;100.00
72560;BME280;62987;52.382;9.752;2023-07-22T08:53:33;100697.34;;;19.34;100.00
72560;BME280;62987;52.382;9.752;2023-07-22T08:56:01;100692.16;;;19.55;100.00
72560;BME280;62987;52.382;9.752;2023-07-22T08:58:31;100681.91;;;19.36;100.00
72560;BME280;62987;52.382;9.752;2023-07-22T09:01:00;100656.53;;;19.16;100.00
72560;BME280;62987;52.382;9.752;2023-07-22T09:03:29;100694.16;;;19.18;100.00
72560;BME280;62987;52.382;9.752;2023-07-22T09:05:58;100700.19;;;18.87;100.00
72560;BME280;62987;52.382;9.752;2023-07-22T09:08:26;100689.34;;;18.64;100.00
72560;BME280;62987;52.382;9.752;2023-07-22T09:10:55;100693.84;;;18.64;100.00
72560;BME280;62987;52.382;9.752;2023-07-22T09:13:26;100690.66;;;18.94;100.00
72560;BME280;62987;52.382;9.752;2023-07-22T09:15:57;100677.50;;;19.24;100.00
72560;BME280;62987;52.382;9.752;2023-07-22T09:18:25;100685.88;;;19.54;100.00
72560;BME280;62987;52.382;9.752;2023-07-22T09:20:53;100668.69;;;19.44;100.00
72560;BME280;62987;52.382;9.752;2023-07-22T09:23:32;100683.59;;;19.15;100.00
72560;BME280;62987;52.382;9.752;2023-07-22T09:26:10;100654.69;;;19.17;100.00
72560;BME280;62987;52.382;9.752;2023-07-22T09:28:50;100675.56;;;19.60;100.00
72560;BME280;62987;52.382;9.752;2023-07-22T09:31:20;100665.13;;;20.00;100.00
72560;BME280;62987;52.382;9.752;2023-07-22T09:33:48;100671.38;;;19.78;100.00
72560;BME280;62987;52.382;9.752;2023-07-22T09:36:17;100673.09;;;20.01;100.00
72560;BME280;62987;52.382;9.752;2023-07-22T09:38:45;100654.69;;;19.84;100.00
72560;BME280;62987;52.382;9.752;2023-07-22T09:41:18;100669.56;;;19.89;100.00
72560;BME280;62987;52.382;9.752;2023-07-22T09:43:46;100655.06;;;19.90;100.00
72560;BME280;62987;52.382;9.752;2023-07-22T09:46:15;100655.41;;;20.08;100.00
72560;BME280;62987;52.382;9.752;2023-07-22T09:48:53;100671.41;;;20.32;100.00
72560;BME280;62987;52.382;9.752;2023-07-22T09:51:22;100663.00;;;20.14;100.00
72560;BME280;62987;52.382;9.752;2023-07-22T09:54:00;100671.63;;;20.51;100.00
72560;BME280;62987;52.382;9.752;2023-07-22T09:56:28;100629.28;;;20.29;100.00
72560;BME280;62987;52.382;9.752;2023-07-22T09:58:58;100650.69;;;20.32;100.00
72560;BME280;62987;52.382;9.752;2023-07-22T10:01:27;100664.31;;;20.63;100.00
72560;BME280;62987;52.382;9.752;2023-07-22T10:03:57;100569.88;;;20.29;100.00
72560;BME280;62987;52.382;9.752;2023-07-22T10:06:27;100659.34;;;20.79;100.00
72560;BME280;62987;52.382;9.752;2023-07-22T10:08:55;100658.81;;;20.32;100.00
72560;BME280;62987;52.382;9.752;2023-07-22T10:11:25;100642.66;;;20.74;100.00
72560;BME280;62987;52.382;9.752;2023-07-22T10:13:55;100629.81;;;20.34;100.00
72560;BME280;62987;52.382;9.752;2023-07-22T10:16:23;100619.16;;;20.22;100.00
72560;BME280;62987;52.382;9.752;2023-07-22T10:18:53;100656.00;;;20.55;100.00
72560;BME280;62987;52.382;9.752;2023-07-22T10:21:23;100653.47;;;20.74;100.00
72560;BME280;62987;52.382;9.752;2023-07-22T10:23:52;100607.69;;;20.29;100.00
72560;BME280;62987;52.382;9.752;2023-07-22T10:26:20;100652.59;;;20.53;100.00
72560;BME280;62987;52.382;9.752;2023-07-22T10:29:08;100645.03;;;20.24;100.00
72560;BME280;62987;52.382;9.752;2023-07-22T10:31:37;100627.16;;;20.12;100.00
72560;BME280;62987;52.382;9.752;2023-07-22T10:34:05;100647.22;;;20.30;100.00
72560;BME280;62987;52.382;9.752;2023-07-22T10:36:35;100642.97;;;20.17;100.00
72560;BME280;62987;52.382;9.752;2023-07-22T10:39:04;100638.19;;;20.20;100.00
72560;BME280;62987;52.382;9.752;2023-07-22T10:41:32;100645.13;;;19.91;100.00
72560;BME280;62987;52.382;9.752;2023-07-22T10:44:00;100621.00;;;19.67;100.00
72560;BME280;62987;52.382;9.752;2023-07-22T10:46:32;100620.59;;;19.05;100.00
72560;BME280;62987;52.382;9.752;2023-07-22T10:49:11;100658.38;;;18.70;100.00
72560;BME280;62987;52.382;9.752;2023-07-22T10:51:47;100658.25;;;18.71;100.00
72560;BME280;62987;52.382;9.752;2023-07-22T10:54:31;100660.13;;;18.93;100.00
72560;BME280;62987;52.382;9.752;2023-07-22T10:57:02;100654.38;;;19.55;100.00
72560;BME280;62987;52.382;9.752;2023-07-22T10:59:33;100644.16;;;19.81;100.00
72560;BME280;62987;52.382;9.752;2023-07-22T11:02:08;100625.84;;;19.95;100.00
72560;BME280;62987;52.382;9.752;2023-07-22T11:05:11;100619.16;;;20.11;100.00
72560;BME280;62987;52.382;9.752;2023-07-22T11:07:44;100608.53;;;19.98;100.00
72560;BME280;62987;52.382;9.752;2023-07-22T11:10:15;100592.50;;;20.17;100.00
72560;BME280;62987;52.382;9.752;2023-07-22T11:12:44;100606.25;;;20.25;100.00
72560;BME280;62987;52.382;9.752;2023-07-22T11:15:15;100609.28;;;20.00;100.00
72560;BME280;62987;52.382;9.752;2023-07-22T11:17:44;100610.78;;;19.82;100.00
72560;BME280;62987;52.382;9.752;2023-07-22T11:20:12;100591.41;;;19.66;100.00
72560;BME280;62987;52.382;9.752;2023-07-22T11:22:40;100626.47;;;19.88;100.00
72560;BME280;62987;52.382;9.752;2023-07-22T11:25:17;100626.97;;;19.93;100.00
72560;BME280;62987;52.382;9.752;2023-07-22T11:27:46;100632.13;;;19.96;100.00
72560;BME280;62987;52.382;9.752;2023-07-22T11:30:14;100599.63;;;19.64;100.00
72560;BME280;62987;52.382;9.752;2023-07-22T11:32:42;100625.50;;;19.89;100.00
72560;BME280;62987;52.382;9.752;2023-07-22T11:35:11;100618.25;;;19.78;100.00
72560;BME280;62987;52.382;9.752;2023-07-22T11:37:39;100606.91;;;19.64;100.00
72560;BME280;62987;52.382;9.752;2023-07-22T11:40:11;100608.84;;;19.62;100.00
72560;BME280;62987;52.382;9.752;2023-07-22T11:42:41;100621.84;;;19.68;100.00
72560;BME280;62987;52.382;9.752;2023-07-22T11:45:10;100616.94;;;19.73;100.00
72560;BME280;62987;52.382;9.752;2023-07-22T11:47:38;100626.44;;;19.99;100.00
72560;BME280;62987;52.382;9.752;2023-07-22T11:50:07;100596.41;;;20.24;100.00
72560;BME280;62987;52.382;9.752;2023-07-22T11:52:35;100617.97;;;20.47;100.00
72560;BME280;62987;52.382;9.752;2023-07-22T11:55:04;100585.84;;;20.32;100.00
72560;BME280;62987;52.382;9.752;2023-07-22T11:57:32;100606.50;;;20.33;100.00
72560;BME280;62987;52.382;9.752;2023-07-22T12:00:01;100614.84;;;20.19;100.00
72560;BME280;62987;52.382;9.752;2023-07-22T12:02:35;100611.47;;;20.06;100.00
72560;BME280;62987;52.382;9.752;2023-07-22T12:05:06;100607.81;;;19.96;100.00
72560;BME280;62987;52.382;9.752;2023-07-22T12:07:36;100607.97;;;19.72;100.00
72560;BME280;62987;52.382;9.752;2023-07-22T12:10:05;100594.50;;;19.61;100.00
72560;BME280;62987;52.382;9.752;2023-07-22T12:12:37;100565.72;;;19.50;100.00
72560;BME280;62987;52.382;9.752;2023-07-22T12:15:11;100619.63;;;19.73;100.00
72560;BME280;62987;52.382;9.752;2023-07-22T12:17:47;100614.94;;;19.86;100.00
72560;BME280;62987;52.382;9.752;2023-07-22T12:20:17;100616.88;;;20.06;100.00
72560;BME280;62987;52.382;9.752;2023-07-22T12:22:46;100619.16;;;20.11;100.00
72560;BME280;62987;52.382;9.752;2023-07-22T12:25:14;100614.31;;;20.37;100.00
72560;BME280;62987;52.382;9.752;2023-07-22T12:27:43;100608.97;;;20.78;100.00
72560;BME280;62987;52.382;9.752;2023-07-22T12:30:13;100579.78;;;21.02;100.00
72560;BME280;62987;52.382;9.752;2023-07-22T12:32:45;100606.06;;;21.42;100.00
72560;BME280;62987;52.382;9.752;2023-07-22T12:35:13;100599.34;;;21.36;100.00
72560;BME280;62987;52.382;9.752;2023-07-22T12:37:41;100587.53;;;21.87;100.00
72560;BME280;62987;52.382;9.752;2023-07-22T12:40:11;100594.72;;;22.07;100.00
72560;BME280;62987;52.382;9.752;2023-07-22T12:42:39;100559.72;;;21.75;100.00
72560;BME280;62987;52.382;9.752;2023-07-22T12:45:08;100589.81;;;21.82;100.00
72560;BME280;62987;52.382;9.752;2023-07-22T12:47:38;100587.31;;;22.19;100.00
72560;BME280;62987;52.382;9.752;2023-07-22T12:50:07;100568.91;;;22.13;100.00
72560;BME280;62987;52.382;9.752;2023-07-22T12:52:35;100589.19;;;22.09;100.00